sensor_id;sensor_type;location;lat;lon;timestamp;P1;durP1;ratioP1;P2;durP2;ratioP2
12962;SDS011;6546;49.882;8.666;2022-10-31T00:01:19;14.43;;;8.80;;
12962;SDS011;6546;49.882;8.666;2022-10-31T00:03:47;10.80;;;8.67;;
12962;SDS011;6546;49.882;8.666;2022-10-31T00:06:16;19.37;;;8.33;;
12962;SDS011;6546;49.882;8.666;2022-10-31T00:08:43;12.10;;;8.27;;
12962;SDS011;6546;49.882;8.666;2022-10-31T00:11:11;12.07;;;8.43;;
12962;SDS011;6546;49.882;8.666;2022-10-31T00:13:40;11.20;;;7.97;;
12962;SDS011;6546;49.882;8.666;2022-10-31T00:16:12;16.33;;;8.73;;
12962;SDS011;6546;49.882;8.666;2022-10-31T00:18:40;10.37;;;8.17;;
12962;SDS011;6546;49.882;8.666;2022-10-31T00:21:15;13.17;;;8.50;;
12962;SDS011;6546;49.882;8.666;2022-10-31T00:23:43;12.50;;;8.03;;
12962;SDS011;6546;49.882;8.666;2022-10-31T00:26:10;13.13;;;8.30;;
12962;SDS011;6546;49.882;8.666;2022-10-31T00:28:36;17.77;;;9.47;;
12962;SDS011;6546;49.882;8.666;2022-10-31T00:31:04;12.53;;;8.67;;
12962;SDS011;6546;49.882;8.666;2022-10-31T00:33:34;18.03;;;9.27;;
12962;SDS011;6546;49.882;8.666;2022-10-31T00:36:03;14.63;;;8.97;;
12962;SDS011;6546;49.882;8.666;2022-10-31T00:38:32;14.87;;;9.30;;
12962;SDS011;6546;49.882;8.666;2022-10-31T00:40:59;13.07;;;8.53;;
12962;SDS011;6546;49.882;8.666;2022-10-31T00:43:26;14.43;;;9.10;;
12962;SDS011;6546;49.882;8.666;2022-10-31T00:45:52;13.73;;;9.33;;
12962;SDS011;6546;49.882;8.666;2022-10-31T00:48:19;13.70;;;8.87;;
12962;SDS011;6546;49.882;8.666;2022-10-31T00:50:46;12.23;;;8.70;;
12962;SDS011;6546;49.882;8.666;2022-10-31T00:53:13;13.10;;;8.07;;
12962;SDS011;6546;49.882;8.666;2022-10-31T00:55:42;14.23;;;8.83;;
12962;SDS011;6546;49.882;8.666;2022-10-31T00:58:09;17.90;;;8.83;;
12962;SDS011;6546;49.882;8.666;2022-10-31T01:00:36;12.80;;;9.17;;
12962;SDS011;6546;49.882;8.666;2022-10-31T01:03:03;12.93;;;8.63;;
12962;SDS011;6546;49.882;8.666;2022-10-31T01:05:31;11.00;;;8.70;;
12962;SDS011;6546;49.882;8.666;2022-10-31T01:07:57;11.93;;;8.30;;
12962;SDS011;6546;49.882;8.666;2022-10-31T01:10:25;11.03;;;7.33;;
12962;SDS011;6546;49.882;8.666;2022-10-31T01:13:02;10.90;;;6.90;;
12962;SDS011;6546;49.882;8.666;2022-10-31T01:15:29;11.00;;;7.07;;
12962;SDS011;6546;49.882;8.666;2022-10-31T01:17:57;11.77;;;7.30;;
12962;SDS011;6546;49.882;8.666;2022-10-31T01:20:27;9.37;;;7.40;;
12962;SDS011;6546;49.882;8.666;2022-10-31T01:22:57;10.17;;;6.83;;
12962;SDS011;6546;49.882;8.666;2022-10-31T01:25:24;10.67;;;7.07;;
12962;SDS011;6546;49.882;8.666;2022-10-31T01:27:50;12.60;;;7.53;;
12962;SDS011;6546;49.882;8.666;2022-10-31T01:30:22;12.07;;;7.00;;
12962;SDS011;6546;49.882;8.666;2022-10-31T01:32:50;12.43;;;7.57;;
12962;SDS011;6546;49.882;8.666;2022-10-31T01:35:20;14.37;;;7.77;;
12962;SDS011;6546;49.882;8.666;2022-10-31T01:37:48;13.93;;;8.10;;
12962;SDS011;6546;49.882;8.666;2022-10-31T01:40:15;14.53;;;8.17;;
12962;SDS011;6546;49.882;8.666;2022-10-31T01:42:42;13.30;;;8.07;;
12962;SDS011;6546;49.882;8.666;2022-10-31T01:45:09;13.67;;;8.37;;
12962;SDS011;6546;49.882;8.666;2022-10-31T01:47:43;12.47;;;7.60;;
12962;SDS011;6546;49.882;8.666;2022-10-31T01:50:16;11.63;;;7.60;;
12962;SDS011;6546;49.882;8.666;2022-10-31T01:52:53;14.13;;;7.40;;
12962;SDS011;6546;49.882;8.666;2022-10-31T01:55:23;11.33;;;6.97;;
12962;SDS011;6546;49.882;8.666;2022-10-31T01:57:52;9.13;;;7.07;;
12962;SDS011;6546;49.882;8.666;2022-10-31T02:00:21;12.00;;;7.73;;
12962;SDS011;6546;49.882;8.666;2022-10-31T02:02:49;11.70;;;7.73;;
12962;SDS011;6546;49.882;8.666;2022-10-31T02:05:22;11.20;;;7.33;;
12962;SDS011;6546;49.882;8.666;2022-10-31T02:07:53;14.03;;;7.27;;
12962;SDS011;6546;49.882;8.666;2022-10-31T02:10:23;12.67;;;8.43;;
12962;SDS011;6546;49.882;8.666;2022-10-31T02:12:51;9.60;;;6.90;;
12962;SDS011;6546;49.882;8.666;2022-10-31T02:15:19;12.83;;;7.83;;
12962;SDS011;6546;49.882;8.666;2022-10-31T02:17:46;10.40;;;7.20;;
12962;SDS011;6546;49.882;8.666;2022-10-31T02:20:16;12.13;;;7.13;;
12962;SDS011;6546;49.882;8.666;2022-10-31T02:23:01;13.67;;;8.00;;
12962;SDS011;6546;49.882;8.666;2022-10-31T02:28:52;15.57;;;8.07;;
12962;SDS011;6546;49.882;8.666;2022-10-31T02:31:35;14.03;;;8.10;;
12962;SDS011;6546;49.882;8.666;2022-10-31T02:34:09;11.73;;;8.10;;
12962;SDS011;6546;49.882;8.666;2022-10-31T02:36:42;11.07;;;8.73;;
12962;SDS011;6546;49.882;8.666;2022-10-31T02:39:17;15.30;;;9.23;;
12962;SDS011;6546;49.882;8.666;2022-10-31T02:41:49;13.40;;;7.80;;
12962;SDS011;6546;49.882;8.666;2022-10-31T02:44:25;10.73;;;7.50;;
12962;SDS011;6546;49.882;8.666;2022-10-31T02:47:03;8.93;;;6.47;;
12962;SDS011;6546;49.882;8.666;2022-10-31T02:49:33;9.30;;;5.90;;
12962;SDS011;6546;49.882;8.666;2022-10-31T02:52:13;12.70;;;6.80;;
12962;SDS011;6546;49.882;8.666;2022-10-31T02:54:40;7.13;;;6.27;;
12962;SDS011;6546;49.882;8.666;2022-10-31T02:57:08;10.80;;;6.53;;
12962;SDS011;6546;49.882;8.666;2022-10-31T02:59:35;10.77;;;6.60;;
12962;SDS011;6546;49.882;8.666;2022-10-31T03:02:17;12.73;;;6.80;;
12962;SDS011;6546;49.882;8.666;2022-10-31T03:05:08;13.37;;;6.93;;
12962;SDS011;6546;49.882;8.666;2022-10-31T03:07:41;13.97;;;7.20;;
12962;SDS011;6546;49.882;8.666;2022-10-31T03:10:17;11.50;;;7.27;;
12962;SDS011;6546;49.882;8.666;2022-10-31T03:12:58;9.30;;;7.13;;
12962;SDS011;6546;49.882;8.666;2022-10-31T03:15:31;13.97;;;7.03;;
12962;SDS011;6546;49.882;8.666;2022-10-31T03:18:02;11.90;;;6.83;;
12962;SDS011;6546;49.882;8.666;2022-10-31T03:20:35;10.93;;;6.97;;
12962;SDS011;6546;49.882;8.666;2022-10-31T03:23:04;12.37;;;7.70;;
12962;SDS011;6546;49.882;8.666;2022-10-31T03:25:34;16.20;;;8.70;;
12962;SDS011;6546;49.882;8.666;2022-10-31T03:28:03;13.33;;;8.10;;
12962;SDS011;6546;49.882;8.666;2022-10-31T03:30:32;15.17;;;8.80;;
12962;SDS011;6546;49.882;8.666;2022-10-31T03:33:03;9.57;;;7.10;;
12962;SDS011;6546;49.882;8.666;2022-10-31T03:35:35;11.83;;;8.27;;
12962;SDS011;6546;49.882;8.666;2022-10-31T03:38:04;11.97;;;7.93;;
12962;SDS011;6546;49.882;8.666;2022-10-31T03:40:32;10.17;;;7.90;;
12962;SDS011;6546;49.882;8.666;2022-10-31T03:43:03;9.67;;;7.17;;
12962;SDS011;6546;49.882;8.666;2022-10-31T03:45:35;12.77;;;7.93;;
12962;SDS011;6546;49.882;8.666;2022-10-31T03:48:07;12.63;;;7.33;;
12962;SDS011;6546;49.882;8.666;2022-10-31T03:50:36;12.93;;;7.73;;
12962;SDS011;6546;49.882;8.666;2022-10-31T03:53:08;15.30;;;11.43;;
12962;SDS011;6546;49.882;8.666;2022-10-31T03:55:41;21.23;;;12.90;;
12962;SDS011;6546;49.882;8.666;2022-10-31T03:58:15;11.67;;;8.67;;
12962;SDS011;6546;49.882;8.666;2022-10-31T04:00:47;13.00;;;7.90;;
12962;SDS011;6546;49.882;8.666;2022-10-31T04:03:19;13.67;;;8.13;;
12962;SDS011;6546;49.882;8.666;2022-10-31T04:05:49;11.43;;;7.20;;
12962;SDS011;6546;49.882;8.666;2022-10-31T04:08:20;10.90;;;7.57;;
12962;SDS011;6546;49.882;8.666;2022-10-31T04:10:50;13.10;;;8.37;;
12962;SDS011;6546;49.882;8.666;2022-10-31T04:13:19;17.20;;;8.07;;
12962;SDS011;6546;49.882;8.666;2022-10-31T04:15:51;17.40;;;8.20;;
12962;SDS011;6546;49.882;8.666;2022-10-31T04:18:21;11.43;;;7.13;;
12962;SDS011;6546;49.882;8.666;2022-10-31T04:20:48;11.40;;;7.90;;
12962;SDS011;6546;49.882;8.666;2022-10-31T04:23:25;13.17;;;7.13;;
12962;SDS011;6546;49.882;8.666;2022-10-31T04:25:53;11.67;;;7.17;;
12962;SDS011;6546;49.882;8.666;2022-10-31T04:28:19;13.53;;;6.87;;
12962;SDS011;6546;49.882;8.666;2022-10-31T04:30:46;9.93;;;7.27;;
12962;SDS011;6546;49.882;8.666;2022-10-31T04:33:12;12.17;;;6.80;;
12962;SDS011;6546;49.882;8.666;2022-10-31T04:35:40;15.53;;;8.13;;
12962;SDS011;6546;49.882;8.666;2022-10-31T04:38:07;10.13;;;6.90;;
12962;SDS011;6546;49.882;8.666;2022-10-31T04:40:33;10.97;;;7.03;;
12962;SDS011;6546;49.882;8.666;2022-10-31T04:43:00;10.67;;;6.80;;
12962;SDS011;6546;49.882;8.666;2022-10-31T04:45:26;10.67;;;6.93;;
12962;SDS011;6546;49.882;8.666;2022-10-31T04:47:53;11.37;;;7.13;;
12962;SDS011;6546;49.882;8.666;2022-10-31T04:50:20;9.73;;;6.93;;
12962;SDS011;6546;49.882;8.666;2022-10-31T04:52:48;9.27;;;6.67;;
12962;SDS011;6546;49.882;8.666;2022-10-31T04:55:14;11.97;;;7.90;;
12962;SDS011;6546;49.882;8.666;2022-10-31T04:57:41;12.00;;;6.93;;
12962;SDS011;6546;49.882;8.666;2022-10-31T05:00:09;10.77;;;6.93;;
12962;SDS011;6546;49.882;8.666;2022-10-31T05:02:42;10.80;;;6.73;;
12962;SDS011;6546;49.882;8.666;2022-10-31T05:05:09;10.27;;;7.10;;
12962;SDS011;6546;49.882;8.666;2022-10-31T05:07:37;10.70;;;6.97;;
12962;SDS011;6546;49.882;8.666;2022-10-31T05:10:06;10.67;;;6.20;;
12962;SDS011;6546;49.882;8.666;2022-10-31T05:12:34;12.10;;;6.37;;
12962;SDS011;6546;49.882;8.666;2022-10-31T05:15:01;10.57;;;6.40;;
12962;SDS011;6546;49.882;8.666;2022-10-31T05:17:27;13.53;;;6.57;;
12962;SDS011;6546;49.882;8.666;2022-10-31T05:19:54;10.23;;;6.70;;
12962;SDS011;6546;49.882;8.666;2022-10-31T05:22:20;11.87;;;7.27;;
12962;SDS011;6546;49.882;8.666;2022-10-31T05:24:47;13.67;;;6.83;;
12962;SDS011;6546;49.882;8.666;2022-10-31T05:27:15;11.43;;;6.97;;
12962;SDS011;6546;49.882;8.666;2022-10-31T05:29:41;11.57;;;7.03;;
12962;SDS011;6546;49.882;8.666;2022-10-31T05:32:08;11.43;;;6.13;;
12962;SDS011;6546;49.882;8.666;2022-10-31T05:34:34;9.63;;;6.43;;
12962;SDS011;6546;49.882;8.666;2022-10-31T05:37:01;13.30;;;7.10;;
12962;SDS011;6546;49.882;8.666;2022-10-31T05:39:27;12.33;;;7.03;;
12962;SDS011;6546;49.882;8.666;2022-10-31T05:41:54;12.70;;;6.37;;
12962;SDS011;6546;49.882;8.666;2022-10-31T05:44:22;12.53;;;6.73;;
12962;SDS011;6546;49.882;8.666;2022-10-31T05:46:48;11.80;;;6.40;;
12962;SDS011;6546;49.882;8.666;2022-10-31T05:49:15;11.87;;;7.10;;
12962;SDS011;6546;49.882;8.666;2022-10-31T05:51:42;10.63;;;6.87;;
12962;SDS011;6546;49.882;8.666;2022-10-31T05:54:09;11.33;;;7.23;;
12962;SDS011;6546;49.882;8.666;2022-10-31T05:56:35;13.73;;;6.93;;
12962;SDS011;6546;49.882;8.666;2022-10-31T05:59:02;10.63;;;6.47;;
12962;SDS011;6546;49.882;8.666;2022-10-31T06:01:29;10.57;;;7.27;;
12962;SDS011;6546;49.882;8.666;2022-10-31T06:03:56;9.90;;;6.37;;
12962;SDS011;6546;49.882;8.666;2022-10-31T06:06:22;8.87;;;6.23;;
12962;SDS011;6546;49.882;8.666;2022-10-31T06:08:49;13.37;;;6.67;;
12962;SDS011;6546;49.882;8.666;2022-10-31T06:11:15;11.33;;;7.37;;
12962;SDS011;6546;49.882;8.666;2022-10-31T06:13:42;14.87;;;9.63;;
12962;SDS011;6546;49.882;8.666;2022-10-31T06:16:10;9.60;;;6.73;;
12962;SDS011;6546;49.882;8.666;2022-10-31T06:18:37;10.37;;;6.97;;
12962;SDS011;6546;49.882;8.666;2022-10-31T06:21:04;12.57;;;6.17;;
12962;SDS011;6546;49.882;8.666;2022-10-31T06:23:31;10.33;;;6.70;;
12962;SDS011;6546;49.882;8.666;2022-10-31T06:25:57;9.63;;;6.13;;
12962;SDS011;6546;49.882;8.666;2022-10-31T06:28:24;10.10;;;6.13;;
12962;SDS011;6546;49.882;8.666;2022-10-31T06:30:50;8.50;;;5.97;;
12962;SDS011;6546;49.882;8.666;2022-10-31T06:33:16;8.83;;;5.53;;
12962;SDS011;6546;49.882;8.666;2022-10-31T06:35:46;10.20;;;6.07;;
12962;SDS011;6546;49.882;8.666;2022-10-31T06:38:12;12.47;;;6.40;;
12962;SDS011;6546;49.882;8.666;2022-10-31T06:40:39;10.97;;;6.70;;
12962;SDS011;6546;49.882;8.666;2022-10-31T06:43:06;9.33;;;6.23;;
12962;SDS011;6546;49.882;8.666;2022-10-31T06:45:32;12.20;;;5.97;;
12962;SDS011;6546;49.882;8.666;2022-10-31T06:47:59;9.10;;;5.83;;
12962;SDS011;6546;49.882;8.666;2022-10-31T06:50:26;8.70;;;5.70;;
12962;SDS011;6546;49.882;8.666;2022-10-31T06:52:55;10.53;;;6.17;;
12962;SDS011;6546;49.882;8.666;2022-10-31T06:55:23;10.97;;;5.80;;
12962;SDS011;6546;49.882;8.666;2022-10-31T06:57:50;9.17;;;5.90;;
12962;SDS011;6546;49.882;8.666;2022-10-31T07:00:17;8.60;;;5.73;;
12962;SDS011;6546;49.882;8.666;2022-10-31T07:02:52;10.53;;;5.37;;
12962;SDS011;6546;49.882;8.666;2022-10-31T07:05:19;7.93;;;5.20;;
12962;SDS011;6546;49.882;8.666;2022-10-31T07:07:46;10.73;;;5.00;;
12962;SDS011;6546;49.882;8.666;2022-10-31T07:10:15;9.23;;;5.10;;
12962;SDS011;6546;49.882;8.666;2022-10-31T07:12:41;10.40;;;5.27;;
12962;SDS011;6546;49.882;8.666;2022-10-31T07:15:08;9.67;;;5.60;;
12962;SDS011;6546;49.882;8.666;2022-10-31T07:17:35;11.13;;;5.70;;
12962;SDS011;6546;49.882;8.666;2022-10-31T07:20:02;11.17;;;6.00;;
12962;SDS011;6546;49.882;8.666;2022-10-31T07:22:32;7.73;;;5.60;;
12962;SDS011;6546;49.882;8.666;2022-10-31T07:24:59;8.43;;;5.63;;
12962;SDS011;6546;49.882;8.666;2022-10-31T07:27:26;8.87;;;5.17;;
12962;SDS011;6546;49.882;8.666;2022-10-31T07:29:53;8.17;;;5.40;;
12962;SDS011;6546;49.882;8.666;2022-10-31T07:32:19;9.40;;;5.67;;
12962;SDS011;6546;49.882;8.666;2022-10-31T07:34:46;9.43;;;5.70;;
12962;SDS011;6546;49.882;8.666;2022-10-31T07:37:12;8.03;;;6.50;;
12962;SDS011;6546;49.882;8.666;2022-10-31T07:39:39;11.27;;;6.00;;
12962;SDS011;6546;49.882;8.666;2022-10-31T07:42:05;11.87;;;6.47;;
12962;SDS011;6546;49.882;8.666;2022-10-31T07:44:33;11.10;;;6.03;;
12962;SDS011;6546;49.882;8.666;2022-10-31T07:47:00;13.90;;;7.37;;
12962;SDS011;6546;49.882;8.666;2022-10-31T07:49:26;8.37;;;5.50;;
12962;SDS011;6546;49.882;8.666;2022-10-31T07:51:53;11.63;;;6.43;;
12962;SDS011;6546;49.882;8.666;2022-10-31T07:54:21;9.20;;;6.20;;
12962;SDS011;6546;49.882;8.666;2022-10-31T07:56:47;8.23;;;6.17;;
12962;SDS011;6546;49.882;8.666;2022-10-31T07:59:14;12.43;;;6.53;;
12962;SDS011;6546;49.882;8.666;2022-10-31T08:01:41;7.33;;;5.67;;
12962;SDS011;6546;49.882;8.666;2022-10-31T08:04:08;11.17;;;6.50;;
12962;SDS011;6546;49.882;8.666;2022-10-31T08:06:35;10.43;;;5.80;;
12962;SDS011;6546;49.882;8.666;2022-10-31T08:09:01;8.73;;;5.93;;
12962;SDS011;6546;49.882;8.666;2022-10-31T08:11:28;9.90;;;6.10;;
12962;SDS011;6546;49.882;8.666;2022-10-31T08:13:54;10.13;;;6.40;;
12962;SDS011;6546;49.882;8.666;2022-10-31T08:16:21;9.83;;;6.23;;
12962;SDS011;6546;49.882;8.666;2022-10-31T08:18:49;8.40;;;5.73;;
12962;SDS011;6546;49.882;8.666;2022-10-31T08:21:15;9.43;;;6.20;;
12962;SDS011;6546;49.882;8.666;2022-10-31T08:23:42;9.53;;;5.90;;
12962;SDS011;6546;49.882;8.666;2022-10-31T08:26:08;10.67;;;5.83;;
12962;SDS011;6546;49.882;8.666;2022-10-31T08:28:35;9.57;;;6.50;;
12962;SDS011;6546;49.882;8.666;2022-10-31T08:31:01;9.70;;;6.70;;
12962;SDS011;6546;49.882;8.666;2022-10-31T08:33:28;12.67;;;6.43;;
12962;SDS011;6546;49.882;8.666;2022-10-31T08:35:57;10.20;;;5.93;;
12962;SDS011;6546;49.882;8.666;2022-10-31T08:38:23;10.53;;;6.17;;
12962;SDS011;6546;49.882;8.666;2022-10-31T08:40:50;7.67;;;5.90;;
12962;SDS011;6546;49.882;8.666;2022-10-31T08:43:17;10.27;;;6.20;;
12962;SDS011;6546;49.882;8.666;2022-10-31T08:45:47;7.50;;;5.70;;
12962;SDS011;6546;49.882;8.666;2022-10-31T08:48:14;13.67;;;6.27;;
12962;SDS011;6546;49.882;8.666;2022-10-31T08:50:43;9.90;;;6.27;;
12962;SDS011;6546;49.882;8.666;2022-10-31T08:53:12;11.97;;;5.57;;
12962;SDS011;6546;49.882;8.666;2022-10-31T08:55:40;9.33;;;5.83;;
12962;SDS011;6546;49.882;8.666;2022-10-31T08:58:09;11.53;;;6.87;;
12962;SDS011;6546;49.882;8.666;2022-10-31T09:00:37;9.13;;;6.00;;
12962;SDS011;6546;49.882;8.666;2022-10-31T09:03:05;12.00;;;6.13;;
12962;SDS011;6546;49.882;8.666;2022-10-31T09:05:35;8.70;;;6.03;;
12962;SDS011;6546;49.882;8.666;2022-10-31T09:08:02;13.03;;;6.07;;
12962;SDS011;6546;49.882;8.666;2022-10-31T09:10:32;11.93;;;6.20;;
12962;SDS011;6546;49.882;8.666;2022-10-31T09:13:00;12.53;;;5.60;;
12962;SDS011;6546;49.882;8.666;2022-10-31T09:15:31;12.07;;;5.80;;
12962;SDS011;6546;49.882;8.666;2022-10-31T09:17:58;13.43;;;6.60;;
12962;SDS011;6546;49.882;8.666;2022-10-31T09:20:25;13.97;;;6.23;;
12962;SDS011;6546;49.882;8.666;2022-10-31T09:22:56;7.87;;;5.73;;
12962;SDS011;6546;49.882;8.666;2022-10-31T09:25:23;9.47;;;5.83;;
12962;SDS011;6546;49.882;8.666;2022-10-31T09:27:54;12.80;;;6.23;;
12962;SDS011;6546;49.882;8.666;2022-10-31T09:30:21;11.60;;;6.33;;
12962;SDS011;6546;49.882;8.666;2022-10-31T09:32:48;9.40;;;6.27;;
12962;SDS011;6546;49.882;8.666;2022-10-31T09:35:20;9.63;;;5.70;;
12962;SDS011;6546;49.882;8.666;2022-10-31T09:37:46;11.23;;;6.30;;
12962;SDS011;6546;49.882;8.666;2022-10-31T09:40:13;12.20;;;5.77;;
12962;SDS011;6546;49.882;8.666;2022-10-31T09:42:49;6.77;;;4.97;;
12962;SDS011;6546;49.882;8.666;2022-10-31T09:45:23;9.63;;;5.63;;
12962;SDS011;6546;49.882;8.666;2022-10-31T09:48:00;9.47;;;5.50;;
12962;SDS011;6546;49.882;8.666;2022-10-31T09:50:39;8.17;;;5.33;;
12962;SDS011;6546;49.882;8.666;2022-10-31T09:53:12;10.90;;;5.23;;
12962;SDS011;6546;49.882;8.666;2022-10-31T09:55:49;11.27;;;5.30;;
12962;SDS011;6546;49.882;8.666;2022-10-31T09:58:19;9.73;;;5.03;;
12962;SDS011;6546;49.882;8.666;2022-10-31T10:00:49;10.43;;;5.00;;
12962;SDS011;6546;49.882;8.666;2022-10-31T10:03:19;8.07;;;5.23;;
12962;SDS011;6546;49.882;8.666;2022-10-31T10:05:54;9.60;;;5.30;;
12962;SDS011;6546;49.882;8.666;2022-10-31T10:08:28;8.63;;;5.00;;
12962;SDS011;6546;49.882;8.666;2022-10-31T10:10:59;8.77;;;5.23;;
12962;SDS011;6546;49.882;8.666;2022-10-31T10:13:39;8.00;;;4.97;;
12962;SDS011;6546;49.882;8.666;2022-10-31T10:16:20;8.77;;;4.73;;
12962;SDS011;6546;49.882;8.666;2022-10-31T10:19:02;6.70;;;4.50;;
12962;SDS011;6546;49.882;8.666;2022-10-31T10:21:43;8.80;;;4.80;;
12962;SDS011;6546;49.882;8.666;2022-10-31T10:24:18;9.97;;;5.20;;
12962;SDS011;6546;49.882;8.666;2022-10-31T10:26:51;9.07;;;5.30;;
12962;SDS011;6546;49.882;8.666;2022-10-31T10:29:29;7.00;;;4.73;;
12962;SDS011;6546;49.882;8.666;2022-10-31T10:32:00;9.87;;;4.60;;
12962;SDS011;6546;49.882;8.666;2022-10-31T10:34:33;11.47;;;5.13;;
12962;SDS011;6546;49.882;8.666;2022-10-31T10:37:03;8.48;;;4.70;;
12962;SDS011;6546;49.882;8.666;2022-10-31T10:39:40;8.17;;;4.83;;
12962;SDS011;6546;49.882;8.666;2022-10-31T10:42:10;9.07;;;5.20;;
12962;SDS011;6546;49.882;8.666;2022-10-31T10:44:58;7.00;;;4.93;;
12962;SDS011;6546;49.882;8.666;2022-10-31T10:47:43;9.80;;;4.70;;
12962;SDS011;6546;49.882;8.666;2022-10-31T10:50:14;8.50;;;4.90;;
12962;SDS011;6546;49.882;8.666;2022-10-31T10:52:46;13.63;;;7.00;;
12962;SDS011;6546;49.882;8.666;2022-10-31T10:55:22;9.80;;;5.67;;
12962;SDS011;6546;49.882;8.666;2022-10-31T10:57:55;14.70;;;5.43;;
12962;SDS011;6546;49.882;8.666;2022-10-31T11:00:26;9.77;;;5.07;;
12962;SDS011;6546;49.882;8.666;2022-10-31T11:02:55;8.73;;;4.53;;
12962;SDS011;6546;49.882;8.666;2022-10-31T11:05:28;10.43;;;5.07;;
12962;SDS011;6546;49.882;8.666;2022-10-31T11:07:59;9.63;;;4.90;;
12962;SDS011;6546;49.882;8.666;2022-10-31T11:10:26;10.10;;;4.93;;
12962;SDS011;6546;49.882;8.666;2022-10-31T11:13:18;9.40;;;5.13;;
12962;SDS011;6546;49.882;8.666;2022-10-31T11:15:55;9.83;;;4.63;;
12962;SDS011;6546;49.882;8.666;2022-10-31T11:18:25;9.60;;;4.63;;
12962;SDS011;6546;49.882;8.666;2022-10-31T11:20:54;8.63;;;4.40;;
12962;SDS011;6546;49.882;8.666;2022-10-31T11:23:22;10.53;;;5.03;;
12962;SDS011;6546;49.882;8.666;2022-10-31T11:25:54;7.70;;;4.40;;
12962;SDS011;6546;49.882;8.666;2022-10-31T11:28:23;8.60;;;4.40;;
12962;SDS011;6546;49.882;8.666;2022-10-31T11:30:50;9.70;;;4.17;;
12962;SDS011;6546;49.882;8.666;2022-10-31T11:33:22;7.83;;;4.50;;
12962;SDS011;6546;49.882;8.666;2022-10-31T11:35:52;6.47;;;4.30;;
12962;SDS011;6546;49.882;8.666;2022-10-31T11:38:20;9.13;;;4.73;;
12962;SDS011;6546;49.882;8.666;2022-10-31T11:40:51;8.30;;;4.57;;
12962;SDS011;6546;49.882;8.666;2022-10-31T11:43:20;9.70;;;4.40;;
12962;SDS011;6546;49.882;8.666;2022-10-31T11:45:47;6.90;;;4.37;;
12962;SDS011;6546;49.882;8.666;2022-10-31T11:48:15;9.23;;;4.60;;
12962;SDS011;6546;49.882;8.666;2022-10-31T11:50:48;8.67;;;4.50;;
12962;SDS011;6546;49.882;8.666;2022-10-31T11:53:17;7.80;;;4.23;;
12962;SDS011;6546;49.882;8.666;2022-10-31T11:55:45;10.00;;;4.40;;
12962;SDS011;6546;49.882;8.666;2022-10-31T11:58:19;7.83;;;4.27;;
12962;SDS011;6546;49.882;8.666;2022-10-31T12:00:48;7.03;;;4.93;;
12962;SDS011;6546;49.882;8.666;2022-10-31T12:03:33;6.40;;;4.03;;
12962;SDS011;6546;49.882;8.666;2022-10-31T12:06:12;7.97;;;4.23;;
12962;SDS011;6546;49.882;8.666;2022-10-31T12:08:43;7.03;;;3.80;;
12962;SDS011;6546;49.882;8.666;2022-10-31T12:11:15;11.57;;;4.77;;
12962;SDS011;6546;49.882;8.666;2022-10-31T12:14:05;11.10;;;4.83;;
12962;SDS011;6546;49.882;8.666;2022-10-31T12:16:42;8.73;;;4.60;;
12962;SDS011;6546;49.882;8.666;2022-10-31T12:19:16;7.30;;;4.10;;
12962;SDS011;6546;49.882;8.666;2022-10-31T12:21:58;9.97;;;4.67;;
12962;SDS011;6546;49.882;8.666;2022-10-31T12:24:37;9.37;;;4.70;;
12962;SDS011;6546;49.882;8.666;2022-10-31T12:27:20;11.60;;;4.80;;
12962;SDS011;6546;49.882;8.666;2022-10-31T12:30:10;8.90;;;4.67;;
12962;SDS011;6546;49.882;8.666;2022-10-31T12:32:48;10.50;;;4.70;;
12962;SDS011;6546;49.882;8.666;2022-10-31T12:35:44;11.07;;;4.60;;
12962;SDS011;6546;49.882;8.666;2022-10-31T12:38:28;10.70;;;4.77;;
12962;SDS011;6546;49.882;8.666;2022-10-31T12:44:06;8.33;;;4.57;;
12962;SDS011;6546;49.882;8.666;2022-10-31T12:46:48;11.30;;;4.60;;
12962;SDS011;6546;49.882;8.666;2022-10-31T12:49:28;6.07;;;4.13;;
12962;SDS011;6546;49.882;8.666;2022-10-31T12:52:09;9.97;;;4.57;;
12962;SDS011;6546;49.882;8.666;2022-10-31T12:54:55;11.07;;;4.40;;
12962;SDS011;6546;49.882;8.666;2022-10-31T12:57:35;11.27;;;4.70;;
12962;SDS011;6546;49.882;8.666;2022-10-31T13:00:10;11.27;;;4.87;;
12962;SDS011;6546;49.882;8.666;2022-10-31T13:02:40;8.40;;;4.50;;
12962;SDS011;6546;49.882;8.666;2022-10-31T13:05:16;8.73;;;4.70;;
12962;SDS011;6546;49.882;8.666;2022-10-31T13:07:46;9.47;;;4.57;;
12962;SDS011;6546;49.882;8.666;2022-10-31T13:10:20;10.80;;;4.90;;
12962;SDS011;6546;49.882;8.666;2022-10-31T13:12:51;7.10;;;4.17;;
12962;SDS011;6546;49.882;8.666;2022-10-31T13:15:21;7.93;;;4.73;;
12962;SDS011;6546;49.882;8.666;2022-10-31T13:17:50;14.17;;;4.33;;
12962;SDS011;6546;49.882;8.666;2022-10-31T13:20:22;5.83;;;4.77;;
12962;SDS011;6546;49.882;8.666;2022-10-31T13:22:53;6.23;;;4.90;;
12962;SDS011;6546;49.882;8.666;2022-10-31T13:25:24;7.50;;;4.33;;
12962;SDS011;6546;49.882;8.666;2022-10-31T13:27:55;10.13;;;4.43;;
12962;SDS011;6546;49.882;8.666;2022-10-31T13:30:26;8.00;;;4.30;;
12962;SDS011;6546;49.882;8.666;2022-10-31T13:32:56;7.03;;;4.13;;
12962;SDS011;6546;49.882;8.666;2022-10-31T13:35:29;7.67;;;4.37;;
12962;SDS011;6546;49.882;8.666;2022-10-31T13:38:05;10.10;;;4.87;;
12962;SDS011;6546;49.882;8.666;2022-10-31T13:40:40;8.83;;;4.33;;
12962;SDS011;6546;49.882;8.666;2022-10-31T13:43:16;8.63;;;4.40;;
12962;SDS011;6546;49.882;8.666;2022-10-31T13:45:52;8.57;;;4.43;;
12962;SDS011;6546;49.882;8.666;2022-10-31T13:48:33;7.70;;;3.97;;
12962;SDS011;6546;49.882;8.666;2022-10-31T13:51:02;7.80;;;4.13;;
12962;SDS011;6546;49.882;8.666;2022-10-31T13:53:36;8.13;;;4.73;;
12962;SDS011;6546;49.882;8.666;2022-10-31T13:56:24;8.03;;;4.23;;
12962;SDS011;6546;49.882;8.666;2022-10-31T14:01:48;9.07;;;4.57;;
12962;SDS011;6546;49.882;8.666;2022-10-31T14:04:18;6.63;;;4.70;;
12962;SDS011;6546;49.882;8.666;2022-10-31T14:06:52;8.10;;;4.60;;
12962;SDS011;6546;49.882;8.666;2022-10-31T14:09:24;11.27;;;4.37;;
12962;SDS011;6546;49.882;8.666;2022-10-31T14:11:57;6.80;;;4.30;;
12962;SDS011;6546;49.882;8.666;2022-10-31T14:14:29;10.70;;;4.90;;
12962;SDS011;6546;49.882;8.666;2022-10-31T14:17:15;8.73;;;4.83;;
12962;SDS011;6546;49.882;8.666;2022-10-31T14:19:55;9.97;;;4.90;;
12962;SDS011;6546;49.882;8.666;2022-10-31T14:22:28;7.00;;;4.87;;
12962;SDS011;6546;49.882;8.666;2022-10-31T14:24:55;7.53;;;4.60;;
12962;SDS011;6546;49.882;8.666;2022-10-31T14:30:14;8.50;;;4.30;;
12962;SDS011;6546;49.882;8.666;2022-10-31T14:32:43;7.10;;;3.67;;
12962;SDS011;6546;49.882;8.666;2022-10-31T14:35:13;9.30;;;5.07;;
12962;SDS011;6546;49.882;8.666;2022-10-31T14:37:47;8.53;;;5.33;;
12962;SDS011;6546;49.882;8.666;2022-10-31T14:43:45;7.97;;;4.60;;
12962;SDS011;6546;49.882;8.666;2022-10-31T14:46:33;6.57;;;4.83;;
12962;SDS011;6546;49.882;8.666;2022-10-31T14:52:11;7.77;;;4.73;;
12962;SDS011;6546;49.882;8.666;2022-10-31T14:54:41;8.83;;;4.93;;
12962;SDS011;6546;49.882;8.666;2022-10-31T14:57:15;6.90;;;4.73;;
12962;SDS011;6546;49.882;8.666;2022-10-31T14:59:47;7.30;;;4.63;;
12962;SDS011;6546;49.882;8.666;2022-10-31T15:02:18;7.80;;;5.30;;
12962;SDS011;6546;49.882;8.666;2022-10-31T15:04:50;7.77;;;5.07;;
12962;SDS011;6546;49.882;8.666;2022-10-31T15:07:19;7.67;;;4.73;;
12962;SDS011;6546;49.882;8.666;2022-10-31T15:09:54;6.93;;;5.03;;
12962;SDS011;6546;49.882;8.666;2022-10-31T15:12:23;7.03;;;4.83;;
12962;SDS011;6546;49.882;8.666;2022-10-31T15:14:52;8.43;;;4.93;;
12962;SDS011;6546;49.882;8.666;2022-10-31T15:17:20;10.83;;;6.23;;
12962;SDS011;6546;49.882;8.666;2022-10-31T15:19:47;14.37;;;6.60;;
12962;SDS011;6546;49.882;8.666;2022-10-31T15:22:14;11.50;;;5.80;;
12962;SDS011;6546;49.882;8.666;2022-10-31T15:24:43;14.20;;;5.77;;
12962;SDS011;6546;49.882;8.666;2022-10-31T15:27:10;10.13;;;5.83;;
12962;SDS011;6546;49.882;8.666;2022-10-31T15:29:49;12.17;;;5.30;;
12962;SDS011;6546;49.882;8.666;2022-10-31T15:32:20;11.57;;;6.00;;